sensor_id;sensor_type;location;lat;lon;timestamp;temperature;humidity
33067;DHT22;19428;49.024;8.366;2022-08-06T00:01:05;20.90;99.90
33067;DHT22;19428;49.024;8.366;2022-08-06T00:03:31;20.90;99.90
33067;DHT22;19428;49.024;8.366;2022-08-06T00:05:56;20.90;99.90
33067;DHT22;19428;49.024;8.366;2022-08-06T00:08:22;20.90;99.90
33067;DHT22;19428;49.024;8.366;2022-08-06T00:10:47;20.80;99.90
33067;DHT22;19428;49.024;8.366;2022-08-06T00:13:13;20.90;99.90
33067;DHT22;19428;49.024;8.366;2022-08-06T00:15:39;20.90;99.90
33067;DHT22;19428;49.024;8.366;2022-08-06T00:18:05;20.90;99.90
33067;DHT22;19428;49.024;8.366;2022-08-06T00:20:31;20.80;99.90
33067;DHT22;19428;49.024;8.366;2022-08-06T00:23:00;20.80;99.90
33067;DHT22;19428;49.024;8.366;2022-08-06T00:25:25;20.80;99.90
33067;DHT22;19428;49.024;8.366;2022-08-06T00:27:51;20.80;99.90
33067;DHT22;19428;49.024;8.366;2022-08-06T00:30:16;20.70;99.90
33067;DHT22;19428;49.024;8.366;2022-08-06T00:32:42;20.70;99.90
33067;DHT22;19428;49.024;8.366;2022-08-06T00:35:08;20.80;99.90
33067;DHT22;19428;49.024;8.366;2022-08-06T00:37:33;20.80;99.90
33067;DHT22;19428;49.024;8.366;2022-08-06T00:39:59;20.80;99.90
33067;DHT22;19428;49.024;8.366;2022-08-06T00:42:26;20.70;99.90
33067;DHT22;19428;49.024;8.366;2022-08-06T00:44:52;20.70;99.90
33067;DHT22;19428;49.024;8.366;2022-08-06T00:47:17;20.70;99.90
33067;DHT22;19428;49.024;8.366;2022-08-06T00:49:43;20.60;99.90
33067;DHT22;19428;49.024;8.366;2022-08-06T00:52:09;20.60;99.90
33067;DHT22;19428;49.024;8.366;2022-08-06T00:54:34;20.50;99.90
33067;DHT22;19428;49.024;8.366;2022-08-06T00:57:00;20.60;99.90
33067;DHT22;19428;49.024;8.366;2022-08-06T00:59:25;20.50;99.90
33067;DHT22;19428;49.024;8.366;2022-08-06T01:01:51;20.50;99.90
33067;DHT22;19428;49.024;8.366;2022-08-06T01:04:18;20.40;99.90
33067;DHT22;19428;49.024;8.366;2022-08-06T01:06:44;20.50;99.90
33067;DHT22;19428;49.024;8.366;2022-08-06T01:09:10;20.40;99.90
33067;DHT22;19428;49.024;8.366;2022-08-06T01:11:35;20.40;99.90
33067;DHT22;19428;49.024;8.366;2022-08-06T01:14:01;20.40;99.90
33067;DHT22;19428;49.024;8.366;2022-08-06T01:16:46;20.40;99.90
33067;DHT22;19428;49.024;8.366;2022-08-06T01:19:22;20.30;99.90
33067;DHT22;19428;49.024;8.366;2022-08-06T01:22:09;20.30;99.90
33067;DHT22;19428;49.024;8.366;2022-08-06T01:24:52;20.30;99.90
33067;DHT22;19428;49.024;8.366;2022-08-06T01:27:44;20.30;99.90
33067;DHT22;19428;49.024;8.366;2022-08-06T01:30:15;20.20;99.90
33067;DHT22;19428;49.024;8.366;2022-08-06T01:32:47;20.10;99.90
33067;DHT22;19428;49.024;8.366;2022-08-06T01:35:25;20.10;99.90
33067;DHT22;19428;49.024;8.366;2022-08-06T01:38:05;20.10;99.90
33067;DHT22;19428;49.024;8.366;2022-08-06T01:40:33;20.00;99.90
33067;DHT22;19428;49.024;8.366;2022-08-06T01:43:00;20.00;99.90
33067;DHT22;19428;49.024;8.366;2022-08-06T01:45:29;20.00;99.90
33067;DHT22;19428;49.024;8.366;2022-08-06T01:47:59;19.90;99.90
33067;DHT22;19428;49.024;8.366;2022-08-06T01:50:32;19.90;99.90
33067;DHT22;19428;49.024;8.366;2022-08-06T01:53:01;19.80;99.90
33067;DHT22;19428;49.024;8.366;2022-08-06T01:55:31;19.80;99.90
33067;DHT22;19428;49.024;8.366;2022-08-06T01:57:59;19.90;99.90
33067;DHT22;19428;49.024;8.366;2022-08-06T02:00:26;19.80;99.90
33067;DHT22;19428;49.024;8.366;2022-08-06T02:02:54;19.80;99.90
33067;DHT22;19428;49.024;8.366;2022-08-06T02:05:21;19.70;99.90
33067;DHT22;19428;49.024;8.366;2022-08-06T02:07:51;19.70;99.90
33067;DHT22;19428;49.024;8.366;2022-08-06T02:10:20;19.70;99.90
33067;DHT22;19428;49.024;8.366;2022-08-06T02:12:48;19.70;99.90
33067;DHT22;19428;49.024;8.366;2022-08-06T02:15:17;19.70;99.90
33067;DHT22;19428;49.024;8.366;2022-08-06T02:17:52;19.70;99.90
33067;DHT22;19428;49.024;8.366;2022-08-06T02:20:26;19.60;99.90
33067;DHT22;19428;49.024;8.366;2022-08-06T02:22:53;19.60;99.90
33067;DHT22;19428;49.024;8.366;2022-08-06T02:25:21;19.50;99.90
33067;DHT22;19428;49.024;8.366;2022-08-06T02:27:52;19.50;99.90
33067;DHT22;19428;49.024;8.366;2022-08-06T02:30:18;19.40;99.90
33067;DHT22;19428;49.024;8.366;2022-08-06T02:32:44;19.40;99.90
33067;DHT22;19428;49.024;8.366;2022-08-06T02:35:10;19.40;99.90
33067;DHT22;19428;49.024;8.366;2022-08-06T02:37:53;19.30;99.90
33067;DHT22;19428;49.024;8.366;2022-08-06T02:40:30;19.30;99.90
33067;DHT22;19428;49.024;8.366;2022-08-06T02:43:06;19.20;99.90
33067;DHT22;19428;49.024;8.366;2022-08-06T02:45:38;19.20;99.90
33067;DHT22;19428;49.024;8.366;2022-08-06T02:48:12;19.10;99.90
33067;DHT22;19428;49.024;8.366;2022-08-06T02:50:41;19.00;99.90
33067;DHT22;19428;49.024;8.366;2022-08-06T02:53:23;18.90;99.90
33067;DHT22;19428;49.024;8.366;2022-08-06T02:55:53;18.80;99.90
33067;DHT22;19428;49.024;8.366;2022-08-06T02:58:26;18.80;99.90
33067;DHT22;19428;49.024;8.366;2022-08-06T03:00:54;18.70;99.90
33067;DHT22;19428;49.024;8.366;2022-08-06T03:03:22;18.70;99.90
33067;DHT22;19428;49.024;8.366;2022-08-06T03:05:50;18.60;99.90
33067;DHT22;19428;49.024;8.366;2022-08-06T03:08:19;18.70;99.90
33067;DHT22;19428;49.024;8.366;2022-08-06T03:10:46;18.60;99.90
33067;DHT22;19428;49.024;8.366;2022-08-06T03:13:13;18.50;99.90
33067;DHT22;19428;49.024;8.366;2022-08-06T03:15:39;18.50;99.90
33067;DHT22;19428;49.024;8.366;2022-08-06T03:18:05;18.50;99.90
33067;DHT22;19428;49.024;8.366;2022-08-06T03:20:32;18.40;99.90
33067;DHT22;19428;49.024;8.366;2022-08-06T03:23:04;18.40;99.90
33067;DHT22;19428;49.024;8.366;2022-08-06T03:25:32;18.40;99.90
33067;DHT22;19428;49.024;8.366;2022-08-06T03:27:59;18.30;99.90
33067;DHT22;19428;49.024;8.366;2022-08-06T03:30:26;18.30;99.90
33067;DHT22;19428;49.024;8.366;2022-08-06T03:32:52;18.30;99.90
33067;DHT22;19428;49.024;8.366;2022-08-06T03:35:18;18.30;99.90
33067;DHT22;19428;49.024;8.366;2022-08-06T03:37:46;18.10;99.90
33067;DHT22;19428;49.024;8.366;2022-08-06T03:40:13;18.10;99.90
33067;DHT22;19428;49.024;8.366;2022-08-06T03:42:40;18.10;99.90
33067;DHT22;19428;49.024;8.366;2022-08-06T03:45:06;18.00;99.90
33067;DHT22;19428;49.024;8.366;2022-08-06T03:47:37;17.90;99.90
33067;DHT22;19428;49.024;8.366;2022-08-06T03:50:11;17.90;99.90
33067;DHT22;19428;49.024;8.366;2022-08-06T03:52:39;17.80;99.90
33067;DHT22;19428;49.024;8.366;2022-08-06T03:55:09;17.80;99.90
33067;DHT22;19428;49.024;8.366;2022-08-06T03:57:41;17.70;99.90
33067;DHT22;19428;49.024;8.366;2022-08-06T04:00:08;17.60;99.90
33067;DHT22;19428;49.024;8.366;2022-08-06T04:02:37;17.70;99.90
33067;DHT22;19428;49.024;8.366;2022-08-06T04:05:04;17.60;99.90
33067;DHT22;19428;49.024;8.366;2022-08-06T04:07:31;17.60;99.90
33067;DHT22;19428;49.024;8.366;2022-08-06T04:09:59;17.60;99.90
33067;DHT22;19428;49.024;8.366;2022-08-06T04:12:25;17.50;99.90
33067;DHT22;19428;49.024;8.366;2022-08-06T04:14:52;17.50;99.90
33067;DHT22;19428;49.024;8.366;2022-08-06T04:17:19;17.50;99.90
33067;DHT22;19428;49.024;8.366;2022-08-06T04:19:46;17.50;99.90
33067;DHT22;19428;49.024;8.366;2022-08-06T04:22:12;17.40;99.90
33067;DHT22;19428;49.024;8.366;2022-08-06T04:24:39;17.40;99.90
33067;DHT22;19428;49.024;8.366;2022-08-06T04:27:07;17.30;99.90
33067;DHT22;19428;49.024;8.366;2022-08-06T04:29:34;17.40;99.90
33067;DHT22;19428;49.024;8.366;2022-08-06T04:32:01;17.40;99.90
33067;DHT22;19428;49.024;8.366;2022-08-06T04:34:28;17.30;99.90
33067;DHT22;19428;49.024;8.366;2022-08-06T04:36:59;17.40;99.90
33067;DHT22;19428;49.024;8.366;2022-08-06T04:39:26;17.30;99.90
33067;DHT22;19428;49.024;8.366;2022-08-06T04:41:52;17.30;99.90
33067;DHT22;19428;49.024;8.366;2022-08-06T04:44:18;17.40;99.90
33067;DHT22;19428;49.024;8.366;2022-08-06T04:46:45;17.30;99.90
33067;DHT22;19428;49.024;8.366;2022-08-06T04:49:15;17.20;99.90
33067;DHT22;19428;49.024;8.366;2022-08-06T04:51:44;17.20;99.90
33067;DHT22;19428;49.024;8.366;2022-08-06T04:54:10;17.30;99.90
33067;DHT22;19428;49.024;8.366;2022-08-06T04:56:35;17.20;99.90
33067;DHT22;19428;49.024;8.366;2022-08-06T04:59:02;17.20;99.90
33067;DHT22;19428;49.024;8.366;2022-08-06T05:01:27;17.30;99.90
33067;DHT22;19428;49.024;8.366;2022-08-06T05:03:53;17.40;99.90
33067;DHT22;19428;49.024;8.366;2022-08-06T05:09:19;17.20;99.90
33067;DHT22;19428;49.024;8.366;2022-08-06T05:11:50;17.20;99.90
33067;DHT22;19428;49.024;8.366;2022-08-06T05:14:22;17.30;99.90
33067;DHT22;19428;49.024;8.366;2022-08-06T05:16:50;17.30;99.90
33067;DHT22;19428;49.024;8.366;2022-08-06T05:19:26;17.50;99.90
33067;DHT22;19428;49.024;8.366;2022-08-06T05:21:53;17.40;99.90
33067;DHT22;19428;49.024;8.366;2022-08-06T05:24:19;17.30;99.90
33067;DHT22;19428;49.024;8.366;2022-08-06T05:26:45;17.40;99.90
33067;DHT22;19428;49.024;8.366;2022-08-06T05:29:11;17.50;99.90
33067;DHT22;19428;49.024;8.366;2022-08-06T05:31:38;17.50;99.90
33067;DHT22;19428;49.024;8.366;2022-08-06T05:34:08;17.30;99.90
33067;DHT22;19428;49.024;8.366;2022-08-06T05:36:34;17.50;99.90
33067;DHT22;19428;49.024;8.366;2022-08-06T05:39:00;17.60;99.90
33067;DHT22;19428;49.024;8.366;2022-08-06T05:41:26;17.40;99.90
33067;DHT22;19428;49.024;8.366;2022-08-06T05:43:52;17.40;99.90
33067;DHT22;19428;49.024;8.366;2022-08-06T05:46:22;17.80;99.90
33067;DHT22;19428;49.024;8.366;2022-08-06T05:51:46;18.20;99.90
33067;DHT22;19428;49.024;8.366;2022-08-06T05:54:39;18.10;99.90
33067;DHT22;19428;49.024;8.366;2022-08-06T05:57:24;18.00;99.90
33067;DHT22;19428;49.024;8.366;2022-08-06T06:00:03;18.00;99.90
33067;DHT22;19428;49.024;8.366;2022-08-06T06:02:33;17.90;99.90
33067;DHT22;19428;49.024;8.366;2022-08-06T06:04:59;18.30;99.90
33067;DHT22;19428;49.024;8.366;2022-08-06T06:07:25;18.40;99.90
33067;DHT22;19428;49.024;8.366;2022-08-06T06:09:51;18.40;99.90
33067;DHT22;19428;49.024;8.366;2022-08-06T06:12:19;18.50;99.90
33067;DHT22;19428;49.024;8.366;2022-08-06T06:14:46;18.90;99.90
33067;DHT22;19428;49.024;8.366;2022-08-06T06:22:57;18.80;99.90
33067;DHT22;19428;49.024;8.366;2022-08-06T06:25:29;18.90;99.90
33067;DHT22;19428;49.024;8.366;2022-08-06T06:28:05;19.10;99.90
33067;DHT22;19428;49.024;8.366;2022-08-06T06:30:46;19.00;99.90
33067;DHT22;19428;49.024;8.366;2022-08-06T06:33:24;19.30;99.90
33067;DHT22;19428;49.024;8.366;2022-08-06T06:35:54;19.30;99.90
33067;DHT22;19428;49.024;8.366;2022-08-06T06:38:37;19.10;99.90
33067;DHT22;19428;49.024;8.366;2022-08-06T06:41:23;19.00;99.90
33067;DHT22;19428;49.024;8.366;2022-08-06T06:44:11;18.80;99.90
33067;DHT22;19428;49.024;8.366;2022-08-06T06:46:45;19.40;99.90
33067;DHT22;19428;49.024;8.366;2022-08-06T06:49:27;19.70;99.90
33067;DHT22;19428;49.024;8.366;2022-08-06T06:51:56;19.40;99.90
33067;DHT22;19428;49.024;8.366;2022-08-06T06:54:45;19.40;99.90
33067;DHT22;19428;49.024;8.366;2022-08-06T06:57:20;19.70;99.90
33067;DHT22;19428;49.024;8.366;2022-08-06T06:59:52;20.00;99.90
33067;DHT22;19428;49.024;8.366;2022-08-06T07:02:23;20.30;99.90
33067;DHT22;19428;49.024;8.366;2022-08-06T07:04:54;19.80;99.90
33067;DHT22;19428;49.024;8.366;2022-08-06T07:07:21;19.80;99.90
33067;DHT22;19428;49.024;8.366;2022-08-06T07:09:47;19.50;99.90
33067;DHT22;19428;49.024;8.366;2022-08-06T07:12:17;19.60;99.90
33067;DHT22;19428;49.024;8.366;2022-08-06T07:14:44;19.90;99.90
33067;DHT22;19428;49.024;8.366;2022-08-06T07:17:11;20.00;99.90
33067;DHT22;19428;49.024;8.366;2022-08-06T07:19:38;19.90;99.90
33067;DHT22;19428;49.024;8.366;2022-08-06T07:22:04;20.50;99.90
33067;DHT22;19428;49.024;8.366;2022-08-06T07:24:33;20.20;99.90
33067;DHT22;19428;49.024;8.366;2022-08-06T07:27:00;20.40;99.90
33067;DHT22;19428;49.024;8.366;2022-08-06T07:29:27;20.30;99.90
33067;DHT22;19428;49.024;8.366;2022-08-06T07:31:55;20.40;99.90
33067;DHT22;19428;49.024;8.366;2022-08-06T07:34:21;20.40;99.90
33067;DHT22;19428;49.024;8.366;2022-08-06T07:36:51;20.30;99.90
33067;DHT22;19428;49.024;8.366;2022-08-06T07:39:25;20.20;99.90
33067;DHT22;19428;49.024;8.366;2022-08-06T07:41:53;20.10;99.90
33067;DHT22;19428;49.024;8.366;2022-08-06T07:44:21;20.40;99.90
33067;DHT22;19428;49.024;8.366;2022-08-06T07:46:50;20.50;99.90
33067;DHT22;19428;49.024;8.366;2022-08-06T07:49:20;20.30;99.90
33067;DHT22;19428;49.024;8.366;2022-08-06T07:51:47;20.70;99.90
33067;DHT22;19428;49.024;8.366;2022-08-06T07:54:14;20.30;99.90
33067;DHT22;19428;49.024;8.366;2022-08-06T07:56:42;20.20;99.90
33067;DHT22;19428;49.024;8.366;2022-08-06T07:59:08;20.50;99.90
33067;DHT22;19428;49.024;8.366;2022-08-06T08:01:35;20.80;99.90
33067;DHT22;19428;49.024;8.366;2022-08-06T08:04:06;20.60;99.90
33067;DHT22;19428;49.024;8.366;2022-08-06T08:06:52;20.70;99.90
33067;DHT22;19428;49.024;8.366;2022-08-06T08:09:19;20.60;99.90
33067;DHT22;19428;49.024;8.366;2022-08-06T08:11:48;20.70;99.90
33067;DHT22;19428;49.024;8.366;2022-08-06T08:14:16;21.10;99.90
33067;DHT22;19428;49.024;8.366;2022-08-06T08:16:43;21.30;99.90
33067;DHT22;19428;49.024;8.366;2022-08-06T08:19:32;21.10;99.90
33067;DHT22;19428;49.024;8.366;2022-08-06T08:22:18;21.10;99.80
33067;DHT22;19428;49.024;8.366;2022-08-06T08:24:46;21.30;99.90
33067;DHT22;19428;49.024;8.366;2022-08-06T08:27:13;21.00;98.20
33067;DHT22;19428;49.024;8.366;2022-08-06T08:29:41;20.90;98.50
33067;DHT22;19428;49.024;8.366;2022-08-06T08:32:08;21.20;98.50
33067;DHT22;19428;49.024;8.366;2022-08-06T08:34:35;21.30;96.40
33067;DHT22;19428;49.024;8.366;2022-08-06T08:37:03;21.30;96.60
33067;DHT22;19428;49.024;8.366;2022-08-06T08:39:29;21.40;95.60
33067;DHT22;19428;49.024;8.366;2022-08-06T08:42:03;21.50;95.80
33067;DHT22;19428;49.024;8.366;2022-08-06T08:44:33;21.50;95.50
33067;DHT22;19428;49.024;8.366;2022-08-06T08:46:59;21.80;94.60
33067;DHT22;19428;49.024;8.366;2022-08-06T08:52:01;21.80;93.60
33067;DHT22;19428;49.024;8.366;2022-08-06T08:54:29;22.10;91.70
33067;DHT22;19428;49.024;8.366;2022-08-06T08:56:56;22.30;94.70
33067;DHT22;19428;49.024;8.366;2022-08-06T08:59:22;21.50;95.50
33067;DHT22;19428;49.024;8.366;2022-08-06T09:01:48;21.20;97.50
33067;DHT22;19428;49.024;8.366;2022-08-06T09:04:15;21.50;96.70
33067;DHT22;19428;49.024;8.366;2022-08-06T09:06:41;21.70;94.30
33067;DHT22;19428;49.024;8.366;2022-08-06T09:09:07;22.10;92.30
33067;DHT22;19428;49.024;8.366;2022-08-06T09:11:35;21.90;92.00
33067;DHT22;19428;49.024;8.366;2022-08-06T09:14:05;22.30;93.40
33067;DHT22;19428;49.024;8.366;2022-08-06T09:16:33;21.70;93.90
33067;DHT22;19428;49.024;8.366;2022-08-06T09:18:59;21.40;93.90
33067;DHT22;19428;49.024;8.366;2022-08-06T09:21:26;22.10;93.50
33067;DHT22;19428;49.024;8.366;2022-08-06T09:23:52;22.30;92.90
33067;DHT22;19428;49.024;8.366;2022-08-06T09:26:18;22.30;93.80
33067;DHT22;19428;49.024;8.366;2022-08-06T09:28:44;22.20;92.30
33067;DHT22;19428;49.024;8.366;2022-08-06T09:31:12;21.80;93.10
33067;DHT22;19428;49.024;8.366;2022-08-06T09:33:43;22.20;91.10
33067;DHT22;19428;49.024;8.366;2022-08-06T09:36:17;22.10;92.70
33067;DHT22;19428;49.024;8.366;2022-08-06T09:38:59;22.10;91.60
33067;DHT22;19428;49.024;8.366;2022-08-06T09:41:28;22.00;91.70
33067;DHT22;19428;49.024;8.366;2022-08-06T09:43:55;22.30;91.10
33067;DHT22;19428;49.024;8.366;2022-08-06T09:46:45;21.90;87.80
33067;DHT22;19428;49.024;8.366;2022-08-06T09:49:13;21.70;86.70
33067;DHT22;19428;49.024;8.366;2022-08-06T09:51:40;22.40;87.10
33067;DHT22;19428;49.024;8.366;2022-08-06T09:54:11;22.10;84.40
33067;DHT22;19428;49.024;8.366;2022-08-06T09:56:45;22.50;83.50
33067;DHT22;19428;49.024;8.366;2022-08-06T09:59:12;22.60;83.50
33067;DHT22;19428;49.024;8.366;2022-08-06T10:01:45;22.30;82.10
33067;DHT22;19428;49.024;8.366;2022-08-06T10:04:24;22.40;80.20
33067;DHT22;19428;49.024;8.366;2022-08-06T10:06:58;22.30;81.60
33067;DHT22;19428;49.024;8.366;2022-08-06T10:09:25;22.80;81.50
33067;DHT22;19428;49.024;8.366;2022-08-06T10:11:52;22.80;78.90
33067;DHT22;19428;49.024;8.366;2022-08-06T10:14:27;23.40;75.00
33067;DHT22;19428;49.024;8.366;2022-08-06T10:17:13;23.00;75.00
33067;DHT22;19428;49.024;8.366;2022-08-06T10:19:42;23.20;73.90
33067;DHT22;19428;49.024;8.366;2022-08-06T10:22:10;22.70;73.50
33067;DHT22;19428;49.024;8.366;2022-08-06T10:24:48;23.20;74.00
33067;DHT22;19428;49.024;8.366;2022-08-06T10:27:21;23.20;74.40
33067;DHT22;19428;49.024;8.366;2022-08-06T10:29:50;23.60;72.30
33067;DHT22;19428;49.024;8.366;2022-08-06T10:32:29;23.50;70.80
33067;DHT22;19428;49.024;8.366;2022-08-06T10:34:55;23.10;70.50
33067;DHT22;19428;49.024;8.366;2022-08-06T10:37:22;23.10;70.90
33067;DHT22;19428;49.024;8.366;2022-08-06T10:39:56;23.30;68.00
33067;DHT22;19428;49.024;8.366;2022-08-06T10:42:23;22.80;70.30
33067;DHT22;19428;49.024;8.366;2022-08-06T10:44:50;23.10;68.70
33067;DHT22;19428;49.024;8.366;2022-08-06T10:47:18;23.50;70.80
33067;DHT22;19428;49.024;8.366;2022-08-06T10:49:45;23.30;67.30
33067;DHT22;19428;49.024;8.366;2022-08-06T10:52:11;22.90;67.50
33067;DHT22;19428;49.024;8.366;2022-08-06T10:54:39;23.00;68.50
33067;DHT22;19428;49.024;8.366;2022-08-06T10:57:06;23.20;68.20
33067;DHT22;19428;49.024;8.366;2022-08-06T10:59:32;23.20;66.50
33067;DHT22;19428;49.024;8.366;2022-08-06T11:04:59;23.40;67.10
33067;DHT22;19428;49.024;8.366;2022-08-06T11:08:01;23.60;65.20
33067;DHT22;19428;49.024;8.366;2022-08-06T11:15:56;23.80;63.20
33067;DHT22;19428;49.024;8.366;2022-08-06T11:18:22;23.00;62.00
33067;DHT22;19428;49.024;8.366;2022-08-06T11:20:49;23.60;62.00
33067;DHT22;19428;49.024;8.366;2022-08-06T11:25:49;24.10;61.60
33067;DHT22;19428;49.024;8.366;2022-08-06T11:28:19;24.10;59.50
33067;DHT22;19428;49.024;8.366;2022-08-06T11:30:49;23.90;60.00
33067;DHT22;19428;49.024;8.366;2022-08-06T11:33:19;24.00;59.50
33067;DHT22;19428;49.024;8.366;2022-08-06T11:35:48;23.90;59.40
33067;DHT22;19428;49.024;8.366;2022-08-06T11:41:18;24.50;58.30
33067;DHT22;19428;49.024;8.366;2022-08-06T11:51:57;25.70;55.00
33067;DHT22;19428;49.024;8.366;2022-08-06T11:59:29;25.40;54.30
33067;DHT22;19428;49.024;8.366;2022-08-06T12:01:56;25.90;54.10
33067;DHT22;19428;49.024;8.366;2022-08-06T12:07:25;26.00;51.70
33067;DHT22;19428;49.024;8.366;2022-08-06T12:15:01;26.00;52.40
33067;DHT22;19428;49.024;8.366;2022-08-06T12:17:30;26.40;52.10
33067;DHT22;19428;49.024;8.366;2022-08-06T12:19:58;26.20;51.30
33067;DHT22;19428;49.024;8.366;2022-08-06T12:22:26;25.60;51.20
33067;DHT22;19428;49.024;8.366;2022-08-06T12:24:55;25.60;51.50
33067;DHT22;19428;49.024;8.366;2022-08-06T12:27:22;26.40;49.50
33067;DHT22;19428;49.024;8.366;2022-08-06T12:29:54;26.00;51.10
33067;DHT22;19428;49.024;8.366;2022-08-06T12:32:26;25.80;50.50
33067;DHT22;19428;49.024;8.366;2022-08-06T12:34:53;26.10;49.10
33067;DHT22;19428;49.024;8.366;2022-08-06T12:37:19;26.30;49.10
33067;DHT22;19428;49.024;8.366;2022-08-06T12:39:45;26.30;48.60
33067;DHT22;19428;49.024;8.366;2022-08-06T12:42:30;26.50;49.20
33067;DHT22;19428;49.024;8.366;2022-08-06T12:44:56;25.90;49.80
33067;DHT22;19428;49.024;8.366;2022-08-06T12:47:23;25.80;49.10
33067;DHT22;19428;49.024;8.366;2022-08-06T12:49:53;26.40;48.60
33067;DHT22;19428;49.024;8.366;2022-08-06T12:52:20;26.40;48.50
33067;DHT22;19428;49.024;8.366;2022-08-06T12:54:47;26.70;47.20
33067;DHT22;19428;49.024;8.366;2022-08-06T12:57:24;26.60;47.60
33067;DHT22;19428;49.024;8.366;2022-08-06T12:59:50;26.90;48.70
33067;DHT22;19428;49.024;8.366;2022-08-06T13:02:18;27.00;46.70
33067;DHT22;19428;49.024;8.366;2022-08-06T13:04:47;27.20;48.10
33067;DHT22;19428;49.024;8.366;2022-08-06T13:07:14;26.80;47.20
33067;DHT22;19428;49.024;8.366;2022-08-06T13:09:42;26.90;46.00
33067;DHT22;19428;49.024;8.366;2022-08-06T13:12:19;27.60;46.50
33067;DHT22;19428;49.024;8.366;2022-08-06T13:14:54;27.50;45.50
33067;DHT22;19428;49.024;8.366;2022-08-06T13:17:22;26.30;45.90
33067;DHT22;19428;49.024;8.366;2022-08-06T13:19:55;26.30;47.60
33067;DHT22;19428;49.024;8.366;2022-08-06T13:22:22;26.10;46.10
33067;DHT22;19428;49.024;8.366;2022-08-06T13:25:08;26.70;46.60
33067;DHT22;19428;49.024;8.366;2022-08-06T13:27:34;26.70;46.10
33067;DHT22;19428;49.024;8.366;2022-08-06T13:30:07;26.30;46.80
33067;DHT22;19428;49.024;8.366;2022-08-06T13:32:33;25.90;47.20
33067;DHT22;19428;49.024;8.366;2022-08-06T13:35:06;25.90;45.50
33067;DHT22;19428;49.024;8.366;2022-08-06T13:37:50;26.80;46.60
33067;DHT22;19428;49.024;8.366;2022-08-06T13:40:23;27.10;45.10
33067;DHT22;19428;49.024;8.366;2022-08-06T13:42:59;26.50;44.90
33067;DHT22;19428;49.024;8.366;2022-08-06T13:45:27;27.10;44.30
33067;DHT22;19428;49.024;8.366;2022-08-06T13:48:06;27.00;44.10
33067;DHT22;19428;49.024;8.366;2022-08-06T13:50:40;27.00;44.40
33067;DHT22;19428;49.024;8.366;2022-08-06T13:53:07;27.00;44.10
33067;DHT22;19428;49.024;8.366;2022-08-06T13:55:34;26.00;45.60
33067;DHT22;19428;49.024;8.366;2022-08-06T13:57:59;26.70;43.60
33067;DHT22;19428;49.024;8.366;2022-08-06T14:00:26;26.80;43.50
33067;DHT22;19428;49.024;8.366;2022-08-06T14:02:52;27.20;44.40
33067;DHT22;19428;49.024;8.366;2022-08-06T14:05:19;26.50;43.10
33067;DHT22;19428;49.024;8.366;2022-08-06T14:07:44;26.40;44.80
33067;DHT22;19428;49.024;8.366;2022-08-06T14:10:10;27.70;44.10
33067;DHT22;19428;49.024;8.366;2022-08-06T14:12:37;26.90;43.30
33067;DHT22;19428;49.024;8.366;2022-08-06T14:15:03;27.40;42.30
33067;DHT22;19428;49.024;8.366;2022-08-06T14:17:29;26.80;42.60
33067;DHT22;19428;49.024;8.366;2022-08-06T14:19:55;26.60;42.30
33067;DHT22;19428;49.024;8.366;2022-08-06T14:22:20;27.50;42.60
33067;DHT22;19428;49.024;8.366;2022-08-06T14:24:46;28.00;42.10
33067;DHT22;19428;49.024;8.366;2022-08-06T14:27:12;27.50;42.10
33067;DHT22;19428;49.024;8.366;2022-08-06T14:29:38;27.10;43.30
33067;DHT22;19428;49.024;8.366;2022-08-06T14:32:05;26.80;42.60
33067;DHT22;19428;49.024;8.366;2022-08-06T14:34:31;26.40;41.70
33067;DHT22;19428;49.024;8.366;2022-08-06T14:36:57;26.80;41.90
33067;DHT22;19428;49.024;8.366;2022-08-06T14:39:23;27.50;41.20
33067;DHT22;19428;49.024;8.366;2022-08-06T14:41:49;27.10;41.60
33067;DHT22;19428;49.024;8.366;2022-08-06T14:44:34;27.30;40.50
33067;DHT22;19428;49.024;8.366;2022-08-06T14:47:18;27.70;40.40
33067;DHT22;19428;49.024;8.366;2022-08-06T14:49:44;27.40;41.40
33067;DHT22;19428;49.024;8.366;2022-08-06T14:52:10;27.10;40.40
33067;DHT22;19428;49.024;8.366;2022-08-06T14:54:36;27.00;40.30
33067;DHT22;19428;49.024;8.366;2022-08-06T14:57:07;27.10;40.40
33067;DHT22;19428;49.024;8.366;2022-08-06T14:59:33;27.10;40.50
33067;DHT22;19428;49.024;8.366;2022-08-06T15:01:59;26.90;41.60
33067;DHT22;19428;49.024;8.366;2022-08-06T15:04:24;26.90;40.10
33067;DHT22;19428;49.024;8.366;2022-08-06T15:06:51;27.30;40.00
33067;DHT22;19428;49.024;8.366;2022-08-06T15:09:19;27.70;40.20
33067;DHT22;19428;49.024;8.366;2022-08-06T15:11:44;27.30;39.80
33067;DHT22;19428;49.024;8.366;2022-08-06T15:14:10;27.80;37.60
33067;DHT22;19428;49.024;8.366;2022-08-06T15:16:35;27.10;39.00
33067;DHT22;19428;49.024;8.366;2022-08-06T15:19:01;27.60;38.70
33067;DHT22;19428;49.024;8.366;2022-08-06T15:21:26;27.20;37.50
33067;DHT22;19428;49.024;8.366;2022-08-06T15:23:52;27.30;38.30
33067;DHT22;19428;49.024;8.366;2022-08-06T15:26:20;26.90;38.90
33067;DHT22;19428;49.024;8.366;2022-08-06T15:28:46;27.40;38.40
33067;DHT22;19428;49.024;8.366;2022-08-06T15:31:11;27.10;37.10
33067;DHT22;19428;49.024;8.366;2022-08-06T15:33:37;27.10;37.10
33067;DHT22;19428;49.024;8.366;2022-08-06T15:36:03;27.30;37.80
33067;DHT22;19428;49.024;8.366;2022-08-06T15:38:29;26.90;38.10
33067;DHT22;19428;49.024;8.366;2022-08-06T15:40:55;26.60;38.20
33067;DHT22;19428;49.024;8.366;2022-08-06T15:43:22;26.90;37.40
33067;DHT22;19428;49.024;8.366;2022-08-06T15:45:49;27.40;38.40
33067;DHT22;19428;49.024;8.366;2022-08-06T15:48:15;27.10;37.00
33067;DHT22;19428;49.024;8.366;2022-08-06T15:50:42;26.90;37.60
33067;DHT22;19428;49.024;8.366;2022-08-06T15:53:12;27.10;37.20
33067;DHT22;19428;49.024;8.366;2022-08-06T15:55:37;27.20;38.50
33067;DHT22;19428;49.024;8.366;2022-08-06T15:58:03;26.90;37.10
33067;DHT22;19428;49.024;8.366;2022-08-06T16:00:28;26.80;37.30
33067;DHT22;19428;49.024;8.366;2022-08-06T16:02:54;26.50;37.30
33067;DHT22;19428;49.024;8.366;2022-08-06T16:05:20;26.40;37.60
33067;DHT22;19428;49.024;8.366;2022-08-06T16:07:47;26.50;37.60
33067;DHT22;19428;49.024;8.366;2022-08-06T16:10:13;26.60;37.80
33067;DHT22;19428;49.024;8.366;2022-08-06T16:12:39;27.00;38.50
33067;DHT22;19428;49.024;8.366;2022-08-06T16:15:05;26.90;39.30
33067;DHT22;19428;49.024;8.366;2022-08-06T16:17:32;26.00;38.70
33067;DHT22;19428;49.024;8.366;2022-08-06T16:19:57;26.20;38.10
33067;DHT22;19428;49.024;8.366;2022-08-06T16:22:23;26.10;38.80
33067;DHT22;19428;49.024;8.366;2022-08-06T16:24:49;26.50;39.50
33067;DHT22;19428;49.024;8.366;2022-08-06T16:27:16;26.30;38.60
33067;DHT22;19428;49.024;8.366;2022-08-06T16:29:45;26.00;38.70
33067;DHT22;19428;49.024;8.366;2022-08-06T16:32:11;26.00;38.80